createdAt,value
2019-05-01T00:02:45.675Z,98213.55
2019-05-01T00:05:20.201Z,98219.88
2019-05-01T00:07:50.142Z,98210.14
2019-05-01T00:10:22.298Z,98207.39
2019-05-01T00:12:52.284Z,98210.22
2019-05-01T00:15:24.489Z,98207.05
2019-05-01T00:17:54.430Z,98210.41
2019-05-01T00:20:24.465Z,98202.27
2019-05-01T00:22:54.446Z,98200.00
2019-05-01T00:25:24.625Z,98198.78
2019-05-01T00:27:54.540Z,98198.53
2019-05-01T00:30:29.951Z,98194.98
2019-05-01T00:32:56.335Z,98194.99
2019-05-01T00:35:26.290Z,98193.42
2019-05-01T00:37:56.205Z,98191.14
2019-05-01T00:40:26.247Z,98195.24
2019-05-01T00:42:56.230Z,98192.23
2019-05-01T00:45:26.227Z,98190.32
2019-05-01T00:47:56.142Z,98192.91
2019-05-01T00:50:26.098Z,98192.12
2019-05-01T00:52:56.601Z,98195.19
2019-05-01T00:55:57.761Z,98192.23
2019-05-01T00:58:42.003Z,98189.66
2019-05-01T01:01:41.872Z,98194.22
2019-05-01T01:04:14.483Z,98187.80
2019-05-01T01:06:44.492Z,98185.36
2019-05-01T01:09:16.329Z,98185.92
2019-05-01T01:11:46.374Z,98180.67
2019-05-01T01:14:16.450Z,98183.93
2019-05-01T01:16:46.698Z,98187.00
2019-05-01T01:19:16.825Z,98181.80
2019-05-01T01:21:47.559Z,98174.78
2019-05-01T01:24:17.894Z,98173.27
2019-05-01T01:26:48.233Z,98172.00
2019-05-01T01:29:18.190Z,98163.91
2019-05-01T01:31:48.188Z,98166.02
2019-05-01T01:34:18.088Z,98166.59
2019-05-01T01:36:48.645Z,98167.84
2019-05-01T01:39:18.568Z,98168.12
2019-05-01T01:41:48.736Z,98158.81
2019-05-01T01:44:35.070Z,98158.49
2019-05-01T01:47:05.153Z,98158.25
2019-05-01T01:49:35.269Z,98155.34
2019-05-01T01:52:05.290Z,98159.06
2019-05-01T01:54:35.466Z,98158.74
2019-05-01T01:57:05.563Z,98156.35
2019-05-01T01:59:35.655Z,98152.55
2019-05-01T02:02:34.385Z,98148.95
2019-05-01T02:05:11.010Z,98150.50
2019-05-01T02:07:42.021Z,98143.45
2019-05-01T02:10:12.738Z,98149.64
2019-05-01T02:12:43.484Z,98145.12
2019-05-01T02:15:14.252Z,98144.05
2019-05-01T02:17:44.676Z,98142.21
2019-05-01T02:20:14.927Z,98145.81
2019-05-01T02:22:45.404Z,98147.51
2019-05-01T02:25:16.306Z,98145.52
2019-05-01T02:27:55.006Z,98147.78
2019-05-01T02:30:25.843Z,98138.48
2019-05-01T02:32:57.113Z,98145.95
2019-05-01T02:35:30.370Z,98143.50
2019-05-01T02:38:00.729Z,98135.94
2019-05-01T02:40:53.200Z,98141.41
2019-05-01T02:43:26.973Z,98141.28
2019-05-01T02:45:58.951Z,98147.00
2019-05-01T02:48:34.065Z,98142.44
2019-05-01T02:51:06.039Z,98140.40
2019-05-01T02:53:39.079Z,98138.50
2019-05-01T02:56:43.306Z,98129.86
2019-05-01T02:59:14.051Z,98135.98
2019-05-01T03:01:47.659Z,98136.36
2019-05-01T03:04:16.740Z,98134.09
2019-05-01T03:06:47.959Z,98135.11
2019-05-01T03:09:19.521Z,98136.34
2019-05-01T03:11:52.110Z,98132.59
2019-05-01T03:14:25.039Z,98130.36
2019-05-01T03:16:58.779Z,98133.12
2019-05-01T03:20:06.045Z,98134.13
2019-05-01T03:22:42.817Z,98134.98
2019-05-01T03:25:13.882Z,98135.90
2019-05-01T03:27:45.166Z,98136.65
2019-05-01T03:30:15.356Z,98140.28
2019-05-01T03:32:45.531Z,98134.03
2019-05-01T03:35:15.528Z,98138.63
2019-05-01T03:37:45.989Z,98136.59
2019-05-01T03:40:16.214Z,98134.14
2019-05-01T03:42:46.472Z,98131.32
2019-05-01T03:45:16.762Z,98135.69
2019-05-01T03:47:47.076Z,98132.73
2019-05-01T03:50:17.738Z,98127.70
2019-05-01T03:52:48.104Z,98130.81
2019-05-01T03:55:18.294Z,98131.94
2019-05-01T03:57:48.469Z,98123.19
2019-05-01T04:00:24.985Z,98128.84
2019-05-01T04:03:12.866Z,98124.14
2019-05-01T04:05:43.001Z,98124.23
2019-05-01T04:08:13.362Z,98124.98
2019-05-01T04:10:43.691Z,98120.33
2019-05-01T04:13:13.756Z,98120.88
2019-05-01T04:15:43.961Z,98118.45
2019-05-01T04:18:14.279Z,98123.16
2019-05-01T04:20:45.079Z,98116.69
2019-05-01T04:23:15.677Z,98123.75
2019-05-01T04:25:45.809Z,98120.98
2019-05-01T04:28:47.214Z,98121.33
2019-05-01T04:31:32.431Z,98124.91
2019-05-01T04:34:06.293Z,98126.20
2019-05-01T04:36:40.359Z,98131.50
2019-05-01T04:39:10.370Z,98132.77
2019-05-01T04:41:40.545Z,98137.11
2019-05-01T04:44:10.926Z,98136.41
2019-05-01T04:46:40.831Z,98135.52
2019-05-01T04:49:11.018Z,98138.72
2019-05-01T04:51:41.148Z,98135.81
2019-05-01T04:54:11.399Z,98139.81
2019-05-01T04:56:41.488Z,98142.11
2019-05-01T04:59:11.749Z,98142.94
2019-05-01T05:01:57.127Z,98152.75
2019-05-01T05:04:26.447Z,98152.38
2019-05-01T05:06:56.766Z,98153.52
2019-05-01T05:09:47.158Z,98155.22
2019-05-01T05:12:40.798Z,98153.73
2019-05-01T05:15:21.961Z,98154.09
2019-05-01T05:17:52.350Z,98164.47
2019-05-01T05:20:22.578Z,98160.53
2019-05-01T05:22:52.760Z,98157.09
2019-05-01T05:25:23.398Z,98157.37
2019-05-01T05:27:55.383Z,98163.91
2019-05-01T05:30:27.986Z,98160.95
2019-05-01T05:32:58.487Z,98161.05
2019-05-01T05:35:30.039Z,98165.69
2019-05-01T05:38:20.510Z,98158.44
2019-05-01T05:40:51.364Z,98156.52
2019-05-01T05:43:21.835Z,98161.78
2019-05-01T05:45:51.923Z,98169.36
2019-05-01T05:48:21.936Z,98161.85
2019-05-01T05:51:05.862Z,98168.70
2019-05-01T05:53:41.738Z,98167.31
2019-05-01T05:56:19.994Z,98164.98
2019-05-01T05:58:56.537Z,98168.05
2019-05-01T06:01:43.387Z,98165.97
2019-05-01T06:04:34.740Z,98169.25
2019-05-01T06:07:10.892Z,98162.80
2019-05-01T06:09:54.521Z,98167.20
2019-05-01T06:12:46.654Z,98160.59
2019-05-01T06:15:36.712Z,98165.13
2019-05-01T06:18:13.997Z,98160.75
2019-05-01T06:21:03.882Z,98157.09
2019-05-01T06:23:57.794Z,98156.58
2019-05-01T06:26:37.352Z,98158.91
2019-05-01T06:29:06.252Z,98154.92
2019-05-01T06:31:36.969Z,98159.30
2019-05-01T06:34:07.170Z,98164.66
2019-05-01T06:36:37.639Z,98162.80
2019-05-01T06:39:11.774Z,98154.47
2019-05-01T06:41:44.106Z,98156.72
2019-05-01T06:44:24.332Z,98155.32
2019-05-01T06:47:07.477Z,98166.16
2019-05-01T06:50:01.111Z,98160.69
2019-05-01T06:52:31.242Z,98158.13
2019-05-01T06:55:01.322Z,98152.61
2019-05-01T06:57:32.047Z,98159.06
2019-05-01T07:00:07.625Z,98159.14
2019-05-01T07:02:35.463Z,98161.25
2019-05-01T07:05:09.024Z,98164.91
2019-05-01T07:07:43.012Z,98154.90
2019-05-01T07:10:12.311Z,98152.85
2019-05-01T07:12:42.871Z,98150.27
2019-05-01T07:15:13.988Z,98151.11
2019-05-01T07:17:47.819Z,98152.42
2019-05-01T07:20:41.048Z,98157.98
2019-05-01T07:23:12.798Z,98153.83
2019-05-01T07:25:42.914Z,98157.26
2019-05-01T07:28:12.942Z,98156.25
2019-05-01T07:30:58.959Z,98153.64
2019-05-01T07:33:29.154Z,98158.64
2019-05-01T07:35:59.497Z,98153.84
2019-05-01T07:38:32.970Z,98150.22
2019-05-01T07:41:03.342Z,98153.74
2019-05-01T07:43:45.382Z,98153.09
2019-05-01T07:46:36.551Z,98149.86
2019-05-01T07:49:06.944Z,98145.05
2019-05-01T07:51:42.347Z,98147.02
2019-05-01T07:54:11.600Z,98138.38
2019-05-01T07:56:41.751Z,98140.21
2019-05-01T07:59:11.962Z,98140.41
2019-05-01T08:01:59.210Z,98141.58
2019-05-01T08:04:36.926Z,98134.17
2019-05-01T08:07:01.396Z,98137.33
2019-05-01T08:09:31.450Z,98133.23
2019-05-01T08:12:01.493Z,98133.97
2019-05-01T08:14:31.396Z,98135.37
2019-05-01T08:17:01.843Z,98134.28
2019-05-01T08:19:39.526Z,98138.89
2019-05-01T08:22:16.515Z,98129.01
2019-05-01T08:24:46.686Z,98127.14
2019-05-01T08:27:23.898Z,98129.69
2019-05-01T08:30:04.339Z,98124.72
2019-05-01T08:32:53.222Z,98118.28
2019-05-01T08:35:25.188Z,98118.74
2019-05-01T08:37:58.431Z,98118.06
2019-05-01T08:40:26.897Z,98115.72
2019-05-01T08:42:56.923Z,98116.48
2019-05-01T08:45:52.237Z,98106.09
2019-05-01T08:48:30.828Z,98109.22
2019-05-01T08:51:01.629Z,98107.70
2019-05-01T08:53:31.603Z,98107.17
2019-05-01T08:56:01.750Z,98111.28
2019-05-01T08:58:31.679Z,98112.81
2019-05-01T09:01:01.619Z,98107.66
2019-05-01T09:03:31.734Z,98105.02
2019-05-01T09:06:01.776Z,98104.55
2019-05-01T09:08:33.270Z,98100.44
2019-05-01T09:11:03.265Z,98098.75
2019-05-01T09:13:33.273Z,98096.52
2019-05-01T09:16:03.176Z,98098.13
2019-05-01T09:18:33.204Z,98091.78
2019-05-01T09:21:03.185Z,98101.85
2019-05-01T09:23:34.524Z,98094.91
2019-05-01T09:26:26.526Z,98093.77
2019-05-01T09:29:01.103Z,98085.56
2019-05-01T09:31:34.018Z,98089.71
2019-05-01T09:34:03.974Z,98083.97
2019-05-01T09:36:34.193Z,98069.76
2019-05-01T09:39:05.574Z,98071.25
2019-05-01T09:41:38.515Z,98068.83
2019-05-01T09:44:10.656Z,98063.98
2019-05-01T09:46:39.152Z,98055.34
2019-05-01T09:49:09.451Z,98063.88
2019-05-01T09:52:02.274Z,98058.27
2019-05-01T09:54:54.026Z,98055.45
2019-05-01T09:57:23.975Z,98053.16
2019-05-01T09:59:53.976Z,98057.87
2019-05-01T10:02:24.428Z,98053.09
2019-05-01T10:04:54.492Z,98055.52
2019-05-01T10:07:28.891Z,98051.44
2019-05-01T10:09:56.177Z,98048.54
2019-05-01T10:12:26.148Z,98051.42
2019-05-01T10:14:56.226Z,98050.41
2019-05-01T10:17:26.217Z,98042.95
2019-05-01T10:19:56.187Z,98040.70
2019-05-01T10:22:26.093Z,98040.77
2019-05-01T10:24:56.026Z,98030.38
2019-05-01T10:27:30.798Z,98026.77
2019-05-01T10:30:10.728Z,98027.16
2019-05-01T10:32:43.491Z,98025.30
2019-05-01T10:35:21.191Z,98023.12
2019-05-01T10:37:51.258Z,98015.24
2019-05-01T10:40:22.381Z,98015.61
2019-05-01T10:42:52.374Z,98009.69
2019-05-01T10:45:23.325Z,98003.06
2019-05-01T10:47:53.329Z,98009.73
2019-05-01T10:50:23.306Z,98007.97
2019-05-01T10:52:53.222Z,98006.80
2019-05-01T10:55:23.163Z,98001.43
2019-05-01T10:57:53.103Z,98006.27
2019-05-01T11:00:23.457Z,97991.38
2019-05-01T11:02:53.367Z,97999.63
2019-05-01T11:05:23.347Z,97994.24
2019-05-01T11:07:53.236Z,97989.52
2019-05-01T11:10:23.294Z,97986.04
2019-05-01T11:12:53.197Z,97976.73
2019-05-01T11:15:23.429Z,97974.91
2019-05-01T11:17:53.555Z,97974.08
2019-05-01T11:20:23.630Z,97979.99
2019-05-01T11:22:53.737Z,97972.61
2019-05-01T11:25:23.755Z,97964.91
2019-05-01T11:27:53.687Z,97966.13
2019-05-01T11:30:23.804Z,97968.27
2019-05-01T11:33:15.755Z,97962.28
2019-05-01T11:36:09.317Z,97959.48
2019-05-01T11:38:43.329Z,97949.39
2019-05-01T11:41:20.810Z,97952.88
2019-05-01T11:43:50.800Z,97949.05
2019-05-01T11:46:20.850Z,97954.66
2019-05-01T11:48:50.758Z,97950.08
2019-05-01T11:51:20.887Z,97950.82
2019-05-01T11:53:50.828Z,97947.31
2019-05-01T11:56:20.854Z,97951.66
2019-05-01T11:58:50.781Z,97943.23
2019-05-01T12:01:41.787Z,97934.45
2019-05-01T12:04:11.659Z,97945.91
2019-05-01T12:06:41.928Z,97935.95
2019-05-01T12:09:11.964Z,97934.50
2019-05-01T12:11:43.658Z,97934.66
2019-05-01T12:14:13.652Z,97935.28
2019-05-01T12:17:04.284Z,97924.38
2019-05-01T12:19:34.217Z,97927.73
2019-05-01T12:22:04.513Z,97922.90
2019-05-01T12:24:34.748Z,97925.09
2019-05-01T12:27:05.458Z,97921.73
2019-05-01T12:29:35.374Z,97920.53
2019-05-01T12:32:05.542Z,97919.95
2019-05-01T12:34:35.531Z,97920.06
2019-05-01T12:37:26.276Z,97912.70
2019-05-01T12:39:56.497Z,97916.66
2019-05-01T12:42:28.804Z,97907.88
2019-05-01T12:44:59.475Z,97907.48
2019-05-01T12:47:43.795Z,97910.97
2019-05-01T12:50:15.756Z,97898.11
2019-05-01T12:53:13.918Z,97889.36
2019-05-01T12:56:15.311Z,97891.99
2019-05-01T12:58:50.098Z,97885.29
2019-05-01T13:01:20.740Z,97889.27
2019-05-01T13:03:50.930Z,97873.58
2019-05-01T13:06:21.019Z,97872.92
2019-05-01T13:08:51.285Z,97867.03
2019-05-01T13:11:21.249Z,97862.70
2019-05-01T13:13:51.163Z,97869.97
2019-05-01T13:16:21.192Z,97869.23
2019-05-01T13:18:51.131Z,97861.83
2019-05-01T13:21:21.080Z,97864.16
2019-05-01T13:23:51.057Z,97854.98
2019-05-01T13:26:27.819Z,97852.70
2019-05-01T13:29:08.976Z,97852.47
2019-05-01T13:32:00.660Z,97847.57
2019-05-01T13:34:30.648Z,97838.81
2019-05-01T13:37:03.235Z,97846.69
2019-05-01T13:39:32.431Z,97843.11
2019-05-01T13:42:02.441Z,97837.37
2019-05-01T13:44:32.451Z,97817.66
2019-05-01T13:47:02.673Z,97826.76
2019-05-01T13:49:32.579Z,97820.81
2019-05-01T13:52:02.521Z,97817.80
2019-05-01T13:54:32.416Z,97810.53
2019-05-01T13:57:02.379Z,97819.30
2019-05-01T13:59:32.287Z,97815.13
2019-05-01T14:02:02.309Z,97802.78
2019-05-01T14:04:32.366Z,97813.09
2019-05-01T14:07:15.264Z,97800.19
2019-05-01T14:09:34.336Z,97802.34
2019-05-01T14:12:04.697Z,97796.58
2019-05-01T14:14:34.603Z,97806.25
2019-05-01T14:17:04.659Z,97785.23
2019-05-01T14:19:36.432Z,97776.91
2019-05-01T14:22:28.516Z,97780.21
2019-05-01T14:24:59.547Z,97785.98
2019-05-01T14:27:29.711Z,97781.90
2019-05-01T14:29:59.743Z,97776.55
2019-05-01T14:32:29.704Z,97773.97
2019-05-01T14:34:59.719Z,97780.20
2019-05-01T14:37:30.174Z,97774.28
2019-05-01T14:40:00.145Z,97763.81
2019-05-01T14:42:30.075Z,97765.52
2019-05-01T14:45:00.141Z,97767.42
2019-05-01T14:47:31.176Z,97767.39
2019-05-01T14:50:01.492Z,97760.79
2019-05-01T14:52:31.420Z,97758.31
2019-05-01T14:55:01.367Z,97758.93
2019-05-01T14:57:31.359Z,97759.84
2019-05-01T15:00:01.294Z,97755.57
2019-05-01T15:02:31.224Z,97754.88
2019-05-01T15:05:01.216Z,97749.92
2019-05-01T15:07:42.768Z,97750.41
2019-05-01T15:10:03.475Z,97742.59
2019-05-01T15:12:33.461Z,97751.06
2019-05-01T15:15:20.815Z,97746.38
2019-05-01T15:18:05.065Z,97744.71
2019-05-01T15:20:34.985Z,97744.66
2019-05-01T15:23:05.004Z,97747.72
2019-05-01T15:25:34.892Z,97740.37
2019-05-01T15:28:04.892Z,97743.34
2019-05-01T15:30:34.829Z,97736.14
2019-05-01T15:33:04.717Z,97729.58
2019-05-01T15:35:34.649Z,97733.84
2019-05-01T15:38:04.935Z,97727.80
2019-05-01T15:40:44.122Z,97724.78
2019-05-01T15:43:26.283Z,97728.58
2019-05-01T15:45:56.694Z,97722.28
2019-05-01T15:48:26.701Z,97723.51
2019-05-01T15:50:57.049Z,97728.39
2019-05-01T15:53:27.093Z,97717.23
2019-05-01T15:55:57.045Z,97713.43
2019-05-01T15:58:27.208Z,97724.45
2019-05-01T16:00:57.165Z,97713.27
2019-05-01T16:03:27.053Z,97716.89
2019-05-01T16:05:56.975Z,97714.97
2019-05-01T16:08:26.951Z,97711.31
2019-05-01T16:11:12.738Z,97704.33
2019-05-01T16:13:42.659Z,97701.85
2019-05-01T16:16:12.624Z,97702.38
2019-05-01T16:18:42.535Z,97705.61
2019-05-01T16:21:12.729Z,97702.86
2019-05-01T16:23:42.648Z,97701.75
2019-05-01T16:26:12.691Z,97699.47
2019-05-01T16:28:42.591Z,97703.71
2019-05-01T16:31:12.853Z,97702.34
2019-05-01T16:33:42.743Z,97695.06
2019-05-01T16:36:13.168Z,97700.16
2019-05-01T16:38:57.106Z,97695.61
2019-05-01T16:41:28.234Z,97699.75
2019-05-01T16:43:58.218Z,97696.98
2019-05-01T16:46:28.161Z,97689.59
2019-05-01T16:48:58.138Z,97691.69
2019-05-01T16:51:28.081Z,97686.63
2019-05-01T16:53:58.113Z,97682.87
2019-05-01T16:56:28.164Z,97691.77
2019-05-01T16:58:58.196Z,97679.56
2019-05-01T17:01:48.510Z,97681.63
2019-05-01T17:04:30.025Z,97680.90
2019-05-01T17:07:21.854Z,97675.62
2019-05-01T17:10:10.682Z,97678.34
2019-05-01T17:12:45.557Z,97677.06
2019-05-01T17:15:17.794Z,97675.65
2019-05-01T17:17:47.897Z,97671.30
2019-05-01T17:20:18.485Z,97671.08
2019-05-01T17:22:50.854Z,97675.72
2019-05-01T17:25:20.650Z,97677.78
2019-05-01T17:27:50.683Z,97681.67
2019-05-01T17:30:37.096Z,97675.44
2019-05-01T17:33:07.287Z,97673.56
2019-05-01T17:35:41.762Z,97678.22
2019-05-01T17:38:10.419Z,97676.66
2019-05-01T17:40:40.542Z,97673.53
2019-05-01T17:43:13.432Z,97679.48
2019-05-01T17:45:42.115Z,97680.39
2019-05-01T17:48:12.746Z,97673.30
2019-05-01T17:50:43.005Z,97679.52
2019-05-01T17:53:12.944Z,97687.59
2019-05-01T17:55:42.916Z,97678.28
2019-05-01T17:58:12.907Z,97675.70
2019-05-01T18:01:04.981Z,97678.77
2019-05-01T18:03:52.075Z,97675.55
2019-05-01T18:06:33.661Z,97674.36
2019-05-01T18:09:08.127Z,97671.81
2019-05-01T18:11:36.814Z,97677.23
2019-05-01T18:14:07.158Z,97672.06
2019-05-01T18:16:37.118Z,97672.42
2019-05-01T18:19:09.869Z,97675.42
2019-05-01T18:21:41.025Z,97675.70
2019-05-01T18:24:29.353Z,97670.91
2019-05-01T18:27:19.063Z,97674.27
2019-05-01T18:29:53.244Z,97677.50
2019-05-01T18:32:41.637Z,97675.84
2019-05-01T18:35:14.254Z,97674.31
2019-05-01T18:37:47.387Z,97682.89
2019-05-01T18:40:24.519Z,97683.37
2019-05-01T18:42:54.845Z,97677.34
2019-05-01T18:45:53.854Z,97677.93
2019-05-01T18:48:25.045Z,97682.62
2019-05-01T18:50:56.361Z,97680.24
2019-05-01T18:53:26.464Z,97685.30
2019-05-01T18:55:56.640Z,97684.95
2019-05-01T18:58:26.551Z,97691.47
2019-05-01T19:00:56.873Z,97684.76
2019-05-01T19:03:26.895Z,97688.41
2019-05-01T19:05:57.002Z,97689.20
2019-05-01T19:08:27.506Z,97690.63
2019-05-01T19:11:05.638Z,97692.59
2019-05-01T19:13:30.501Z,97690.88
2019-05-01T19:16:03.283Z,97698.00
2019-05-01T19:18:32.377Z,97697.93
2019-05-01T19:21:02.891Z,97705.10
2019-05-01T19:23:33.410Z,97700.69
2019-05-01T19:26:06.647Z,97699.64
2019-05-01T19:28:35.673Z,97701.04
2019-05-01T19:31:05.784Z,97702.27
2019-05-01T19:33:35.791Z,97699.68
2019-05-01T19:36:08.253Z,97698.34
2019-05-01T19:38:38.218Z,97706.35
2019-05-01T19:41:11.687Z,97702.02
2019-05-01T19:43:40.769Z,97704.61
2019-05-01T19:46:11.960Z,97702.48
2019-05-01T19:48:45.472Z,97705.92
2019-05-01T19:51:14.299Z,97707.08
2019-05-01T19:53:46.609Z,97702.88
2019-05-01T19:56:16.637Z,97702.08
2019-05-01T19:58:47.869Z,97702.94
2019-05-01T20:01:17.938Z,97701.74
2019-05-01T20:03:47.865Z,97700.98
2019-05-01T20:06:18.665Z,97697.55
2019-05-01T20:08:48.654Z,97700.04
2019-05-01T20:11:18.776Z,97703.50
2019-05-01T20:13:48.758Z,97708.55
2019-05-01T20:16:20.417Z,97710.64
2019-05-01T20:18:50.654Z,97706.94
2019-05-01T20:21:20.753Z,97704.56
2019-05-01T20:23:50.664Z,97711.16
2019-05-01T20:26:20.763Z,97711.36
2019-05-01T20:28:51.021Z,97710.45
2019-05-01T20:31:22.957Z,97712.69
2019-05-01T20:33:52.911Z,97711.67
2019-05-01T20:36:23.186Z,97711.25
2019-05-01T20:38:53.344Z,97708.45
2019-05-01T20:41:23.963Z,97712.34
2019-05-01T20:43:54.728Z,97705.16
2019-05-01T20:46:26.085Z,97707.44
2019-05-01T20:49:01.453Z,97703.95
2019-05-01T20:51:28.421Z,97706.92
2019-05-01T20:53:58.647Z,97706.37
2019-05-01T20:56:43.656Z,97705.97
2019-05-01T20:59:13.697Z,97708.09
2019-05-01T21:01:43.787Z,97702.19
2019-05-01T21:04:33.446Z,97700.23
2019-05-01T21:07:15.661Z,97704.16
2019-05-01T21:09:47.907Z,97702.75
2019-05-01T21:12:17.390Z,97703.86
2019-05-01T21:14:49.622Z,97704.95
2019-05-01T21:17:19.243Z,97706.60
2019-05-01T21:19:49.239Z,97702.85
2019-05-01T21:22:19.214Z,97702.20
2019-05-01T21:24:49.393Z,97700.88
2019-05-01T21:27:19.564Z,97701.88
2019-05-01T21:29:49.500Z,97706.36
2019-05-01T21:32:26.109Z,97706.20
2019-05-01T21:34:53.710Z,97701.35
2019-05-01T21:37:23.710Z,97701.82
2019-05-01T21:39:53.869Z,97705.70
2019-05-01T21:42:24.488Z,97699.66
2019-05-01T21:44:54.677Z,97699.59
2019-05-01T21:47:24.799Z,97691.65
2019-05-01T21:49:54.714Z,97698.34
2019-05-01T21:52:26.772Z,97698.77
2019-05-01T21:54:57.099Z,97699.42
2019-05-01T21:57:29.889Z,97688.22
2019-05-01T21:59:58.749Z,97692.93
2019-05-01T22:02:28.771Z,97686.66
2019-05-01T22:05:03.826Z,97688.42
2019-05-01T22:07:30.311Z,97685.85
2019-05-01T22:10:00.219Z,97683.80
2019-05-01T22:12:30.228Z,97689.25
2019-05-01T22:15:06.097Z,97686.41
2019-05-01T22:17:43.816Z,97685.42
2019-05-01T22:20:16.249Z,97687.14
2019-05-01T22:22:51.109Z,97678.48
2019-05-01T22:25:25.836Z,97685.19
2019-05-01T22:28:02.255Z,97684.17
2019-05-01T22:30:46.433Z,97688.42
2019-05-01T22:33:14.968Z,97685.59
2019-05-01T22:35:46.880Z,97685.98
2019-05-01T22:38:16.894Z,97689.47
2019-05-01T22:41:06.990Z,97692.45
2019-05-01T22:43:35.665Z,97689.45
2019-05-01T22:46:07.753Z,97683.37
2019-05-01T22:48:38.274Z,97690.28
2019-05-01T22:51:17.454Z,97684.05
2019-05-01T22:53:50.333Z,97682.88
2019-05-01T22:56:21.054Z,97685.35
2019-05-01T22:58:51.356Z,97687.81
2019-05-01T23:01:21.799Z,97684.47
2019-05-01T23:03:54.504Z,97694.80
2019-05-01T23:06:24.523Z,97687.42
2019-05-01T23:08:54.731Z,97686.98
2019-05-01T23:11:26.515Z,97680.58
2019-05-01T23:13:56.921Z,97683.73
2019-05-01T23:16:30.381Z,97678.42
2019-05-01T23:19:00.480Z,97678.78
2019-05-01T23:21:30.632Z,97675.08
2019-05-01T23:24:01.995Z,97674.45
2019-05-01T23:26:32.995Z,97676.40
2019-05-01T23:29:03.011Z,97667.65
2019-05-01T23:31:32.979Z,97664.28
2019-05-01T23:34:03.085Z,97668.64
2019-05-01T23:36:32.996Z,97655.44
2019-05-01T23:39:02.935Z,97654.47
2019-05-01T23:41:45.184Z,97655.52
2019-05-01T23:44:05.525Z,97645.94
2019-05-01T23:46:35.441Z,97655.58
2019-05-01T23:49:05.442Z,97649.33
2019-05-01T23:51:35.436Z,97646.02
2019-05-01T23:54:05.589Z,97646.72
2019-05-01T23:56:36.371Z,97650.84
2019-05-01T23:59:06.759Z,97648.26
